createdAt,value
2017-12-14T00:00:54.524Z,3.62
2017-12-14T00:03:22.122Z,3.45
2017-12-14T00:05:49.544Z,3.40
2017-12-14T00:08:17.730Z,2.80
2017-12-14T00:10:45.158Z,3.08
2017-12-14T00:13:12.590Z,3.00
2017-12-14T00:15:40.131Z,3.10
2017-12-14T00:18:07.560Z,3.30
2017-12-14T00:20:34.989Z,3.30
2017-12-14T00:23:03.190Z,3.50
2017-12-14T00:25:30.782Z,3.70
2017-12-14T00:27:58.238Z,3.80
2017-12-14T00:30:25.670Z,3.42
2017-12-14T00:32:53.150Z,3.80
2017-12-14T00:35:20.584Z,3.72
2017-12-14T00:37:48.037Z,3.72
2017-12-14T00:40:15.990Z,3.70
2017-12-14T00:42:43.424Z,3.60
2017-12-14T00:45:10.847Z,4.00
2017-12-14T00:47:38.278Z,3.60
2017-12-14T00:50:05.705Z,3.90
2017-12-14T00:52:33.898Z,3.80
2017-12-14T00:55:01.338Z,3.90
2017-12-14T00:57:29.542Z,3.70
2017-12-14T00:59:56.972Z,3.60
2017-12-14T01:02:24.402Z,3.30
2017-12-14T01:04:51.840Z,3.40
2017-12-14T01:07:19.258Z,3.60
2017-12-14T01:09:46.686Z,3.15
2017-12-14T01:12:14.910Z,3.60
2017-12-14T01:14:42.333Z,3.10
2017-12-14T01:17:09.772Z,3.15
2017-12-14T01:19:37.975Z,2.83
2017-12-14T01:22:05.421Z,3.15
2017-12-14T01:24:32.915Z,2.40
2017-12-14T01:27:00.420Z,2.87
2017-12-14T01:29:27.826Z,2.30
2017-12-14T01:31:55.282Z,2.60
2017-12-14T01:34:22.714Z,2.40
2017-12-14T01:36:50.154Z,2.70
2017-12-14T01:39:17.577Z,2.63
2017-12-14T01:41:45.098Z,2.60
2017-12-14T01:44:12.545Z,3.20
2017-12-14T01:46:40.003Z,3.10
2017-12-14T01:49:07.437Z,4.07
2017-12-14T01:51:34.858Z,4.95
2017-12-14T01:54:02.286Z,5.07
2017-12-14T01:56:29.710Z,5.12
2017-12-14T01:58:57.188Z,4.95
2017-12-14T02:01:24.661Z,6.03
2017-12-14T02:03:52.075Z,6.00
2017-12-14T02:06:19.506Z,6.50
2017-12-14T02:08:47.711Z,6.87
2017-12-14T02:11:15.200Z,7.43
2017-12-14T02:13:42.663Z,6.50
2017-12-14T02:16:10.161Z,6.12
2017-12-14T02:18:37.619Z,6.60
2017-12-14T02:21:05.816Z,5.85
2017-12-14T02:23:33.296Z,6.50
2017-12-14T02:26:00.747Z,5.70
2017-12-14T02:28:28.179Z,5.63
2017-12-14T02:30:55.613Z,6.43
2017-12-14T02:33:23.043Z,5.50
2017-12-14T02:35:50.462Z,5.10
2017-12-14T02:38:17.922Z,5.00
2017-12-14T02:40:45.392Z,5.07
2017-12-14T02:43:12.819Z,5.90
2017-12-14T02:45:40.252Z,5.65
2017-12-14T02:48:07.674Z,5.00
2017-12-14T02:50:35.203Z,5.00
2017-12-14T02:53:02.631Z,4.80
2017-12-14T02:55:30.056Z,4.80
2017-12-14T02:57:58.253Z,4.35
2017-12-14T03:00:25.686Z,4.30
2017-12-14T03:02:53.887Z,4.20
2017-12-14T03:05:21.310Z,3.55
2017-12-14T03:07:48.832Z,3.58
2017-12-14T03:10:17.088Z,21.10
2017-12-14T03:12:44.518Z,2.80
2017-12-14T03:15:12.022Z,3.10
2017-12-14T03:17:39.462Z,3.00
2017-12-14T03:20:06.946Z,3.25
2017-12-14T03:22:34.395Z,3.20
2017-12-14T03:25:01.829Z,2.95
2017-12-14T03:27:29.255Z,2.75
2017-12-14T03:29:57.470Z,2.80
2017-12-14T03:32:24.902Z,3.20
2017-12-14T03:34:52.331Z,3.20
2017-12-14T03:37:20.539Z,3.10
2017-12-14T03:39:47.974Z,3.35
2017-12-14T03:42:15.416Z,3.30
2017-12-14T03:44:43.615Z,3.25
2017-12-14T03:47:11.041Z,3.20
2017-12-14T03:49:39.270Z,3.08
2017-12-14T03:52:06.726Z,3.53
2017-12-14T03:54:34.182Z,3.15
2017-12-14T03:57:01.653Z,3.10
2017-12-14T03:59:29.094Z,3.42
2017-12-14T04:01:56.534Z,3.20
2017-12-14T04:04:24.030Z,3.22
2017-12-14T04:06:51.466Z,2.85
2017-12-14T04:09:18.903Z,3.70
2017-12-14T04:11:46.379Z,3.17
2017-12-14T04:14:13.835Z,4.07
2017-12-14T04:16:41.291Z,3.23
2017-12-14T04:19:08.747Z,3.37
2017-12-14T04:21:36.318Z,4.00
2017-12-14T04:24:03.766Z,3.40
2017-12-14T04:26:31.202Z,3.60
2017-12-14T04:28:58.653Z,3.27
2017-12-14T04:31:26.062Z,3.97
2017-12-14T04:33:53.582Z,4.30
2017-12-14T04:36:21.028Z,3.80
2017-12-14T04:38:48.455Z,4.32
2017-12-14T04:41:16.645Z,4.25
2017-12-14T04:43:44.234Z,5.05
2017-12-14T04:46:11.662Z,4.95
2017-12-14T04:48:39.086Z,5.28
2017-12-14T04:51:07.336Z,5.10
2017-12-14T04:53:34.774Z,5.93
2017-12-14T04:56:02.239Z,6.68
2017-12-14T04:58:29.701Z,6.30
2017-12-14T05:00:57.142Z,6.35
2017-12-14T05:03:24.602Z,7.50
2017-12-14T05:05:52.038Z,6.93
2017-12-14T05:08:19.501Z,8.05
2017-12-14T05:10:46.974Z,7.62
2017-12-14T05:13:14.575Z,7.80
2017-12-14T05:15:41.986Z,7.70
2017-12-14T05:18:09.424Z,7.85
2017-12-14T05:20:36.902Z,8.00
2017-12-14T05:23:04.340Z,7.70
2017-12-14T05:25:31.817Z,6.90
2017-12-14T05:27:59.362Z,8.15
2017-12-14T05:30:26.915Z,8.05
2017-12-14T05:32:54.347Z,7.97
2017-12-14T05:35:21.765Z,7.40
2017-12-14T05:37:49.208Z,7.18
2017-12-14T05:40:17.323Z,6.60
2017-12-14T05:42:44.758Z,7.40
2017-12-14T05:45:12.301Z,7.50
2017-12-14T05:47:39.737Z,7.40
2017-12-14T05:50:07.181Z,6.35
2017-12-14T05:52:34.650Z,6.62
2017-12-14T05:55:02.130Z,6.17
2017-12-14T05:57:29.669Z,6.30
2017-12-14T05:59:57.097Z,6.00
2017-12-14T06:02:24.523Z,5.83
2017-12-14T06:04:52.814Z,6.25
2017-12-14T06:07:20.199Z,6.28
2017-12-14T06:09:47.628Z,6.50
2017-12-14T06:12:15.122Z,6.10
2017-12-14T06:14:42.579Z,5.70
2017-12-14T06:17:10.016Z,6.18
2017-12-14T06:19:37.455Z,6.65
2017-12-14T06:22:04.947Z,5.95
2017-12-14T06:24:32.418Z,5.82
2017-12-14T06:27:00.043Z,6.70
2017-12-14T06:29:27.515Z,6.28
2017-12-14T06:31:54.975Z,6.40
2017-12-14T06:34:22.421Z,7.07
2017-12-14T06:36:49.872Z,7.30
2017-12-14T06:39:17.351Z,7.00
2017-12-14T06:41:44.803Z,7.28
2017-12-14T06:44:12.255Z,7.72
2017-12-14T06:46:39.730Z,7.90
2017-12-14T06:49:07.151Z,8.68
2017-12-14T06:51:34.594Z,8.70
2017-12-14T06:54:02.083Z,8.60
2017-12-14T06:56:29.529Z,9.37
2017-12-14T06:58:56.998Z,8.63
2017-12-14T07:01:24.429Z,9.60
2017-12-14T07:03:51.903Z,10.45
2017-12-14T07:06:19.339Z,9.40
2017-12-14T07:08:46.819Z,10.65
2017-12-14T07:11:14.286Z,10.43
2017-12-14T07:13:41.730Z,10.15
2017-12-14T07:16:09.171Z,9.70
2017-12-14T07:18:36.648Z,10.35
2017-12-14T07:21:04.117Z,9.77
2017-12-14T07:23:31.542Z,9.63
2017-12-14T07:25:59.017Z,11.30
2017-12-14T07:28:26.474Z,10.52
2017-12-14T07:30:53.907Z,10.38
2017-12-14T07:33:21.510Z,10.90
2017-12-14T07:35:48.944Z,10.30
2017-12-14T07:38:16.397Z,10.60
2017-12-14T07:40:43.853Z,9.85
2017-12-14T07:43:17.775Z,9.60
2017-12-14T07:46:05.946Z,10.00
2017-12-14T07:48:34.159Z,10.20
2017-12-14T07:51:01.648Z,10.02
2017-12-14T07:53:29.203Z,10.35
2017-12-14T07:55:56.647Z,10.20
2017-12-14T07:58:24.116Z,9.40
2017-12-14T08:00:51.550Z,9.90
2017-12-14T08:03:19.031Z,10.25
2017-12-14T08:05:46.604Z,9.82
2017-12-14T08:08:14.083Z,10.20
2017-12-14T08:10:42.278Z,10.05
2017-12-14T08:13:09.779Z,10.30
2017-12-14T08:15:37.424Z,9.40
2017-12-14T08:18:04.835Z,10.30
2017-12-14T08:20:33.039Z,10.50
2017-12-14T08:23:00.499Z,10.90
2017-12-14T08:25:27.936Z,10.82
2017-12-14T08:27:55.383Z,11.20
2017-12-14T08:30:23.582Z,11.75
2017-12-14T08:32:51.029Z,12.23
2017-12-14T08:35:18.601Z,12.90
2017-12-14T08:37:46.487Z,12.63
2017-12-14T08:40:13.915Z,12.52
2017-12-14T08:42:42.262Z,13.30
2017-12-14T08:45:10.464Z,11.93
2017-12-14T08:47:37.955Z,12.70
2017-12-14T08:50:05.408Z,12.00
2017-12-14T08:52:32.859Z,12.23
2017-12-14T08:55:00.407Z,12.32
2017-12-14T08:57:27.890Z,11.30
2017-12-14T08:59:55.417Z,11.88
2017-12-14T09:02:22.839Z,11.57
2017-12-14T09:04:51.182Z,12.07
2017-12-14T09:07:18.641Z,11.82
2017-12-14T09:09:46.204Z,12.25
2017-12-14T09:12:13.747Z,12.85
2017-12-14T09:14:41.321Z,12.27
2017-12-14T09:17:08.748Z,12.20
2017-12-14T09:19:36.177Z,11.55
2017-12-14T09:22:03.622Z,11.68
2017-12-14T09:24:31.825Z,12.15
2017-12-14T09:26:59.326Z,12.32
2017-12-14T09:29:26.751Z,12.80
2017-12-14T09:31:54.190Z,12.80
2017-12-14T09:34:21.663Z,12.70
2017-12-14T09:36:49.074Z,11.68
2017-12-14T09:39:16.579Z,12.30
2017-12-14T09:41:44.031Z,12.45
2017-12-14T09:44:11.546Z,12.68
2017-12-14T09:46:38.976Z,12.05
2017-12-14T09:49:07.170Z,12.43
2017-12-14T09:51:34.607Z,11.20
2017-12-14T09:54:02.185Z,11.02
2017-12-14T09:56:29.570Z,10.93
2017-12-14T09:58:57.064Z,10.70
2017-12-14T10:01:24.494Z,10.13
2017-12-14T10:03:51.939Z,10.20
2017-12-14T10:06:19.385Z,10.23
2017-12-14T10:08:46.878Z,8.70
2017-12-14T10:11:14.410Z,8.63
2017-12-14T10:13:42.779Z,8.45
2017-12-14T10:16:10.304Z,7.95
2017-12-14T10:18:37.743Z,7.78
2017-12-14T10:21:05.179Z,7.55
2017-12-14T10:23:32.618Z,7.35
2017-12-14T10:26:00.050Z,7.37
2017-12-14T10:28:28.270Z,8.00
2017-12-14T10:30:55.698Z,6.93
2017-12-14T10:33:23.114Z,7.20
2017-12-14T10:35:51.318Z,7.45
2017-12-14T10:38:18.770Z,7.28
2017-12-14T10:40:46.194Z,7.55
2017-12-14T10:43:13.647Z,6.60
2017-12-14T10:45:41.196Z,5.85
2017-12-14T10:48:08.635Z,6.07
2017-12-14T10:50:36.064Z,5.82
2017-12-14T10:53:03.506Z,5.45
2017-12-14T10:55:31.718Z,5.47
2017-12-14T10:57:59.148Z,5.78
2017-12-14T11:00:32.456Z,5.68
2017-12-14T11:02:59.863Z,5.70
2017-12-14T11:05:27.720Z,6.12
2017-12-14T11:07:55.149Z,5.40
2017-12-14T11:10:22.606Z,5.53
2017-12-14T11:12:50.041Z,5.60
2017-12-14T11:15:17.462Z,5.03
2017-12-14T11:17:44.890Z,5.72
2017-12-14T11:20:12.718Z,5.78
2017-12-14T11:22:41.331Z,7.78
2017-12-14T11:25:08.766Z,7.30
2017-12-14T11:27:36.970Z,8.10
2017-12-14T11:30:04.398Z,7.70
2017-12-14T11:32:31.827Z,7.03
2017-12-14T11:34:59.342Z,7.20
2017-12-14T11:37:26.775Z,7.10
2017-12-14T11:39:54.206Z,7.47
2017-12-14T11:42:22.447Z,7.05
2017-12-14T11:44:49.883Z,7.32
2017-12-14T11:47:17.374Z,6.60
2017-12-14T11:49:44.821Z,6.30
2017-12-14T11:52:12.265Z,7.03
2017-12-14T11:54:39.684Z,6.20
2017-12-14T11:57:07.882Z,6.20
2017-12-14T11:59:35.298Z,5.80
2017-12-14T12:02:02.730Z,6.28
2017-12-14T12:04:30.161Z,6.90
2017-12-14T12:06:57.655Z,6.30
2017-12-14T12:09:25.080Z,6.80
2017-12-14T12:11:58.320Z,7.70
2017-12-14T12:14:25.767Z,8.07
2017-12-14T12:16:53.211Z,8.35
2017-12-14T12:19:20.647Z,8.65
2017-12-14T12:21:48.119Z,8.10
2017-12-14T12:24:15.553Z,8.55
2017-12-14T12:26:42.992Z,8.38
2017-12-14T12:29:10.422Z,8.20
2017-12-14T12:31:38.620Z,8.20
2017-12-14T12:34:06.034Z,9.10
2017-12-14T12:36:33.458Z,8.90
2017-12-14T12:39:00.917Z,8.85
2017-12-14T12:41:28.378Z,9.05
2017-12-14T12:43:55.807Z,8.95
2017-12-14T12:46:23.303Z,9.30
2017-12-14T12:48:50.739Z,9.10
2017-12-14T12:51:18.233Z,9.50
2017-12-14T12:53:45.691Z,9.43
2017-12-14T12:56:13.209Z,9.98
2017-12-14T12:58:40.671Z,10.40
2017-12-14T13:01:08.131Z,10.10
2017-12-14T13:03:35.712Z,9.43
2017-12-14T13:06:03.144Z,8.95
2017-12-14T13:08:30.688Z,8.77
2017-12-14T13:10:58.128Z,8.55
2017-12-14T13:13:26.294Z,8.07
2017-12-14T13:15:53.726Z,8.30
2017-12-14T13:18:22.058Z,8.73
2017-12-14T13:20:49.478Z,8.03
2017-12-14T13:23:16.940Z,7.57
2017-12-14T13:25:44.540Z,8.10
2017-12-14T13:28:11.967Z,8.93
2017-12-14T13:30:39.562Z,9.20
2017-12-14T13:33:07.769Z,9.10
2017-12-14T13:35:35.305Z,10.00
2017-12-14T13:38:02.735Z,9.90
2017-12-14T13:40:30.203Z,10.15
2017-12-14T13:42:57.663Z,9.80
2017-12-14T13:45:25.105Z,9.88
2017-12-14T13:47:52.518Z,9.95
2017-12-14T13:50:20.037Z,10.80
2017-12-14T13:52:47.473Z,10.80
2017-12-14T13:55:15.146Z,11.12
2017-12-14T13:57:42.602Z,11.45
2017-12-14T14:00:10.046Z,11.85
2017-12-14T14:02:37.607Z,12.50
2017-12-14T14:05:05.250Z,11.75
2017-12-14T14:07:32.666Z,11.25
2017-12-14T14:10:00.899Z,11.50
2017-12-14T14:12:28.331Z,11.10
2017-12-14T14:14:56.264Z,11.00
2017-12-14T14:17:24.494Z,12.10
2017-12-14T14:19:51.954Z,10.80
2017-12-14T14:22:19.408Z,13.18
2017-12-14T14:24:46.845Z,9.63
2017-12-14T14:27:14.262Z,8.75
2017-12-14T14:29:42.458Z,8.25
2017-12-14T14:32:10.627Z,7.50
2017-12-14T14:34:38.835Z,7.72
2017-12-14T14:37:06.250Z,7.32
2017-12-14T14:39:33.741Z,8.00
2017-12-14T14:42:01.187Z,7.68
2017-12-14T14:44:29.644Z,7.40
2017-12-14T14:46:57.846Z,7.40
2017-12-14T14:49:25.272Z,7.32
2017-12-14T14:51:52.713Z,7.43
2017-12-14T14:54:20.124Z,7.37
2017-12-14T14:56:47.559Z,8.18
2017-12-14T14:59:14.994Z,8.50
2017-12-14T15:01:43.186Z,8.80
2017-12-14T15:04:10.661Z,8.20
2017-12-14T15:06:38.143Z,8.18
2017-12-14T15:09:05.683Z,9.60
2017-12-14T15:11:33.111Z,9.77
2017-12-14T15:14:00.563Z,9.70
2017-12-14T15:16:28.062Z,8.77
2017-12-14T15:18:55.490Z,8.52
2017-12-14T15:21:23.049Z,7.75
2017-12-14T15:23:50.526Z,8.60
2017-12-14T15:26:18.188Z,7.90
2017-12-14T15:28:45.756Z,8.15
2017-12-14T15:31:13.195Z,7.93
2017-12-14T15:33:40.638Z,8.40
2017-12-14T15:36:08.062Z,7.62
2017-12-14T15:38:35.568Z,8.52
2017-12-14T15:41:02.994Z,7.78
2017-12-14T15:43:30.474Z,7.45
2017-12-14T15:45:57.939Z,7.28
2017-12-14T15:51:15.990Z,7.97
2017-12-14T15:53:43.545Z,9.00
2017-12-14T15:56:11.020Z,8.82
2017-12-14T15:58:38.465Z,8.30
2017-12-14T16:01:05.913Z,9.45
2017-12-14T16:03:33.352Z,9.23
2017-12-14T16:06:00.809Z,9.95
2017-12-14T16:08:28.336Z,9.70
2017-12-14T16:10:56.578Z,9.55
2017-12-14T16:13:24.012Z,9.43
2017-12-14T16:15:51.446Z,10.30
2017-12-14T16:18:19.033Z,9.83
2017-12-14T16:20:46.477Z,10.83
2017-12-14T16:23:13.934Z,9.40
2017-12-14T16:25:41.342Z,9.70
2017-12-14T16:28:09.534Z,9.70
2017-12-14T16:30:37.034Z,9.10
2017-12-14T16:33:04.457Z,10.40
2017-12-14T16:35:31.895Z,8.75
2017-12-14T16:38:00.093Z,10.43
2017-12-14T16:40:27.832Z,9.40
2017-12-14T16:42:55.253Z,10.52
2017-12-14T16:45:22.819Z,10.52
2017-12-14T16:47:50.251Z,9.93
2017-12-14T16:50:17.788Z,10.60
2017-12-14T16:52:45.256Z,10.60
2017-12-14T16:55:12.805Z,10.80
2017-12-14T16:57:40.222Z,9.80
2017-12-14T17:00:07.842Z,11.73
2017-12-14T17:02:35.261Z,11.35
2017-12-14T17:05:03.500Z,10.90
2017-12-14T17:07:31.042Z,10.00
2017-12-14T17:09:58.506Z,9.80
2017-12-14T17:12:25.962Z,10.40
2017-12-14T17:14:53.399Z,10.07
2017-12-14T17:17:20.838Z,9.93
2017-12-14T17:19:48.275Z,9.93
2017-12-14T17:22:16.503Z,10.35
2017-12-14T17:24:43.959Z,10.80
2017-12-14T17:27:11.426Z,10.70
2017-12-14T17:29:38.874Z,11.50
2017-12-14T17:32:06.332Z,11.25
2017-12-14T17:34:33.760Z,10.60
2017-12-14T17:37:01.247Z,12.32
2017-12-14T17:39:28.878Z,11.70
2017-12-14T17:41:56.377Z,12.82
2017-12-14T17:44:23.996Z,12.98
2017-12-14T17:46:51.438Z,11.57
2017-12-14T17:49:18.938Z,13.25
2017-12-14T17:51:46.396Z,12.00
2017-12-14T17:54:13.814Z,12.33
2017-12-14T17:56:41.295Z,12.23
2017-12-14T17:59:08.722Z,13.32
2017-12-14T18:01:36.214Z,13.02
2017-12-14T18:04:03.658Z,12.20
2017-12-14T18:06:31.134Z,13.93
2017-12-14T18:08:58.738Z,13.77
2017-12-14T18:11:26.185Z,13.45
2017-12-14T18:13:54.391Z,14.82
2017-12-14T18:16:21.950Z,13.73
2017-12-14T18:18:49.422Z,13.82
2017-12-14T18:21:16.887Z,13.80
2017-12-14T18:23:44.331Z,13.65
2017-12-14T18:26:11.815Z,14.38
2017-12-14T18:28:39.367Z,14.98
2017-12-14T18:31:06.824Z,14.60
2017-12-14T18:33:34.338Z,14.77
2017-12-14T18:36:01.909Z,16.00
2017-12-14T18:38:29.352Z,14.60
2017-12-14T18:40:56.797Z,15.48
2017-12-14T18:43:24.241Z,14.25
2017-12-14T18:45:52.655Z,14.93
2017-12-14T18:48:20.086Z,14.37
2017-12-14T18:50:48.299Z,14.87
2017-12-14T18:53:15.775Z,14.75
2017-12-14T18:55:43.324Z,14.52
2017-12-14T18:58:10.750Z,15.20
2017-12-14T19:00:38.193Z,14.60
2017-12-14T19:03:05.617Z,14.70
2017-12-14T19:05:33.833Z,14.23
2017-12-14T19:08:01.334Z,15.10
2017-12-14T19:10:28.770Z,13.80
2017-12-14T19:12:56.226Z,13.95
2017-12-14T19:15:23.670Z,13.70
2017-12-14T19:17:51.224Z,13.60
2017-12-14T19:20:18.665Z,13.75
2017-12-14T19:22:46.166Z,13.90
2017-12-14T19:25:13.610Z,15.40
2017-12-14T19:27:41.042Z,14.40
2017-12-14T19:30:08.479Z,13.50
2017-12-14T19:32:35.906Z,14.70
2017-12-14T19:35:04.107Z,14.60
2017-12-14T19:37:32.330Z,14.48
2017-12-14T19:39:59.778Z,14.18
2017-12-14T19:42:27.225Z,15.27
2017-12-14T19:44:54.686Z,13.88
2017-12-14T19:47:22.153Z,15.85
2017-12-14T19:49:49.625Z,16.00
2017-12-14T19:52:17.276Z,16.50
2017-12-14T19:54:44.825Z,16.23
2017-12-14T19:57:12.285Z,15.57
2017-12-14T19:59:39.739Z,16.70
2017-12-14T20:02:07.177Z,16.42
2017-12-14T20:04:34.651Z,15.65
2017-12-14T20:07:02.194Z,16.55
2017-12-14T20:09:29.601Z,18.70
2017-12-14T20:11:57.810Z,16.15
2017-12-14T20:14:25.244Z,15.00
2017-12-14T20:16:53.456Z,15.65
2017-12-14T20:19:20.883Z,16.00
2017-12-14T20:21:48.391Z,16.30
2017-12-14T20:24:15.838Z,17.12
2017-12-14T20:26:43.261Z,16.70
2017-12-14T20:29:10.690Z,17.33
2017-12-14T20:31:38.893Z,16.77
2017-12-14T20:34:06.318Z,17.35
2017-12-14T20:36:34.567Z,17.80
2017-12-14T20:39:02.022Z,17.83
2017-12-14T20:41:29.459Z,17.00
2017-12-14T20:43:57.036Z,17.40
2017-12-14T20:46:24.478Z,17.08
2017-12-14T20:48:51.924Z,18.17
2017-12-14T20:51:19.366Z,16.52
2017-12-14T20:53:46.818Z,16.90
2017-12-14T20:56:14.263Z,17.52
2017-12-14T20:58:41.787Z,18.00
2017-12-14T21:01:09.331Z,18.70
2017-12-14T21:03:36.766Z,18.80
2017-12-14T21:06:04.242Z,19.45
2017-12-14T21:08:31.799Z,20.08
2017-12-14T21:10:59.246Z,19.75
2017-12-14T21:13:26.788Z,20.25
2017-12-14T21:15:54.227Z,21.45
2017-12-14T21:18:21.818Z,20.17
2017-12-14T21:20:49.270Z,22.35
2017-12-14T21:23:16.730Z,21.60
2017-12-14T21:25:44.187Z,23.15
2017-12-14T21:28:11.624Z,21.05
2017-12-14T21:30:39.134Z,21.95
2017-12-14T21:33:06.575Z,21.70
2017-12-14T21:35:34.135Z,20.85
2017-12-14T21:38:01.578Z,20.92
2017-12-14T21:40:29.046Z,21.77
2017-12-14T21:42:56.490Z,21.37
2017-12-14T21:45:23.942Z,22.55
2017-12-14T21:47:51.439Z,21.80
2017-12-14T21:50:18.979Z,23.62
2017-12-14T21:52:46.539Z,23.02
2017-12-14T21:55:13.986Z,22.20
2017-12-14T21:57:41.448Z,22.83
2017-12-14T22:00:08.890Z,23.23
2017-12-14T22:02:36.364Z,22.48
2017-12-14T22:05:03.817Z,22.80
2017-12-14T22:07:31.256Z,22.48
2017-12-14T22:09:58.830Z,22.00
2017-12-14T22:12:26.273Z,23.15
2017-12-14T22:14:53.708Z,24.92
2017-12-14T22:17:21.155Z,22.20
2017-12-14T22:19:48.602Z,22.07
2017-12-14T22:22:16.816Z,23.20
2017-12-14T22:24:44.491Z,22.40
2017-12-14T22:27:12.272Z,23.10
2017-12-14T22:29:39.702Z,22.85
2017-12-14T22:32:07.158Z,22.43
2017-12-14T22:34:34.613Z,22.43
2017-12-14T22:37:02.038Z,22.93
2017-12-14T22:39:29.492Z,23.60
2017-12-14T22:41:56.917Z,24.58
2017-12-14T22:44:24.358Z,23.90
2017-12-14T22:46:51.802Z,23.77
2017-12-14T22:49:19.255Z,23.83
2017-12-14T22:51:46.782Z,26.65
2017-12-14T22:54:14.343Z,23.58
2017-12-14T22:56:41.759Z,23.70
2017-12-14T22:59:09.293Z,24.70
2017-12-14T23:01:36.839Z,25.95
2017-12-14T23:04:04.274Z,25.25
2017-12-14T23:06:31.750Z,23.85
2017-12-14T23:08:59.188Z,25.67
2017-12-14T23:11:26.621Z,26.37
2017-12-14T23:13:54.066Z,26.20
2017-12-14T23:16:22.278Z,24.20
2017-12-14T23:18:49.756Z,24.53
2017-12-14T23:21:17.194Z,24.33
2017-12-14T23:23:44.679Z,23.80
2017-12-14T23:26:12.113Z,24.00
2017-12-14T23:28:39.546Z,24.08
2017-12-14T23:31:06.979Z,24.95
2017-12-14T23:33:35.187Z,22.13
2017-12-14T23:36:02.626Z,23.10
2017-12-14T23:38:30.074Z,23.67
2017-12-14T23:40:57.515Z,24.50
2017-12-14T23:43:25.726Z,23.62
2017-12-14T23:45:53.167Z,23.30
2017-12-14T23:48:20.602Z,24.65
2017-12-14T23:50:48.794Z,23.25
2017-12-14T23:53:16.293Z,23.80
2017-12-14T23:55:43.755Z,23.60
2017-12-14T23:58:11.298Z,23.40
